sensor_id;sensor_type;location;lat;lon;timestamp;P1;durP1;ratioP1;P2;durP2;ratioP2
50225;SDS011;36113;50.742;6.432;2022-10-12T00:00:54;13.23;;;5.90;;
50225;SDS011;36113;50.742;6.432;2022-10-12T00:03:20;15.57;;;7.38;;
50225;SDS011;36113;50.742;6.432;2022-10-12T00:05:46;14.50;;;6.37;;
50225;SDS011;36113;50.742;6.432;2022-10-12T00:08:12;11.45;;;5.35;;
50225;SDS011;36113;50.742;6.432;2022-10-12T00:10:41;10.30;;;4.90;;
50225;SDS011;36113;50.742;6.432;2022-10-12T00:13:07;17.25;;;5.90;;
50225;SDS011;36113;50.742;6.432;2022-10-12T00:15:37;9.27;;;4.32;;
50225;SDS011;36113;50.742;6.432;2022-10-12T00:18:03;13.50;;;5.05;;
50225;SDS011;36113;50.742;6.432;2022-10-12T00:20:29;10.40;;;4.95;;
50225;SDS011;36113;50.742;6.432;2022-10-12T00:22:55;10.00;;;4.47;;
50225;SDS011;36113;50.742;6.432;2022-10-12T00:25:20;10.73;;;4.97;;
50225;SDS011;36113;50.742;6.432;2022-10-12T00:27:45;10.00;;;4.72;;
50225;SDS011;36113;50.742;6.432;2022-10-12T00:30:11;7.32;;;4.47;;
50225;SDS011;36113;50.742;6.432;2022-10-12T00:32:37;10.05;;;4.57;;
50225;SDS011;36113;50.742;6.432;2022-10-12T00:35:02;8.02;;;4.50;;
50225;SDS011;36113;50.742;6.432;2022-10-12T00:37:28;13.27;;;5.50;;
50225;SDS011;36113;50.742;6.432;2022-10-12T00:39:53;11.80;;;4.95;;
50225;SDS011;36113;50.742;6.432;2022-10-12T00:42:18;13.15;;;4.57;;
50225;SDS011;36113;50.742;6.432;2022-10-12T00:44:45;11.75;;;5.07;;
50225;SDS011;36113;50.742;6.432;2022-10-12T00:50:35;14.75;;;5.10;;
50225;SDS011;36113;50.742;6.432;2022-10-12T00:52:45;12.63;;;5.18;;
50225;SDS011;36113;50.742;6.432;2022-10-12T00:55:19;12.25;;;4.75;;
50225;SDS011;36113;50.742;6.432;2022-10-12T00:57:48;8.02;;;5.00;;
50225;SDS011;36113;50.742;6.432;2022-10-12T01:00:17;14.30;;;5.63;;
50225;SDS011;36113;50.742;6.432;2022-10-12T01:02:43;10.68;;;4.68;;
50225;SDS011;36113;50.742;6.432;2022-10-12T01:05:12;8.82;;;4.45;;
50225;SDS011;36113;50.742;6.432;2022-10-12T01:07:39;10.80;;;4.30;;
50225;SDS011;36113;50.742;6.432;2022-10-12T01:10:04;9.20;;;4.00;;
50225;SDS011;36113;50.742;6.432;2022-10-12T01:12:30;10.68;;;4.28;;
50225;SDS011;36113;50.742;6.432;2022-10-12T01:14:56;16.85;;;4.55;;
50225;SDS011;36113;50.742;6.432;2022-10-12T01:22:43;12.77;;;4.30;;
50225;SDS011;36113;50.742;6.432;2022-10-12T01:25:23;7.55;;;4.07;;
50225;SDS011;36113;50.742;6.432;2022-10-12T01:28:13;8.73;;;4.68;;
50225;SDS011;36113;50.742;6.432;2022-10-12T01:30:47;7.65;;;3.75;;
50225;SDS011;36113;50.742;6.432;2022-10-12T01:33:27;10.63;;;3.97;;
50225;SDS011;36113;50.742;6.432;2022-10-12T01:36:08;9.80;;;3.95;;
50225;SDS011;36113;50.742;6.432;2022-10-12T01:38:58;11.00;;;4.00;;
50225;SDS011;36113;50.742;6.432;2022-10-12T01:44:08;12.95;;;5.30;;
50225;SDS011;36113;50.742;6.432;2022-10-12T01:46:40;14.13;;;6.88;;
50225;SDS011;36113;50.742;6.432;2022-10-12T01:49:06;13.80;;;6.43;;
50225;SDS011;36113;50.742;6.432;2022-10-12T01:51:39;11.73;;;7.70;;
50225;SDS011;36113;50.742;6.432;2022-10-12T01:54:09;14.25;;;4.70;;
50225;SDS011;36113;50.742;6.432;2022-10-12T01:56:46;10.43;;;4.82;;
50225;SDS011;36113;50.742;6.432;2022-10-12T02:02:19;9.68;;;5.40;;
50225;SDS011;36113;50.742;6.432;2022-10-12T02:07:59;10.25;;;5.22;;
50225;SDS011;36113;50.742;6.432;2022-10-12T02:10:34;13.75;;;6.00;;
50225;SDS011;36113;50.742;6.432;2022-10-12T02:13:05;12.95;;;5.43;;
50225;SDS011;36113;50.742;6.432;2022-10-12T02:15:33;12.63;;;5.93;;
50225;SDS011;36113;50.742;6.432;2022-10-12T02:18:02;14.43;;;5.80;;
50225;SDS011;36113;50.742;6.432;2022-10-12T02:22:55;16.90;;;5.35;;
50225;SDS011;36113;50.742;6.432;2022-10-12T02:25:21;12.60;;;5.55;;
50225;SDS011;36113;50.742;6.432;2022-10-12T02:28:06;14.40;;;6.05;;
50225;SDS011;36113;50.742;6.432;2022-10-12T02:30:42;12.57;;;4.85;;
50225;SDS011;36113;50.742;6.432;2022-10-12T02:33:14;10.77;;;5.38;;
50225;SDS011;36113;50.742;6.432;2022-10-12T02:35:51;14.48;;;6.20;;
50225;SDS011;36113;50.742;6.432;2022-10-12T02:38:24;8.10;;;5.68;;
50225;SDS011;36113;50.742;6.432;2022-10-12T02:40:58;9.57;;;6.20;;
50225;SDS011;36113;50.742;6.432;2022-10-12T02:46:15;14.85;;;6.25;;
50225;SDS011;36113;50.742;6.432;2022-10-12T02:48:44;11.60;;;5.47;;
50225;SDS011;36113;50.742;6.432;2022-10-12T02:51:11;10.85;;;6.25;;
50225;SDS011;36113;50.742;6.432;2022-10-12T02:53:38;14.15;;;5.82;;
50225;SDS011;36113;50.742;6.432;2022-10-12T02:56:05;9.82;;;5.95;;
50225;SDS011;36113;50.742;6.432;2022-10-12T02:58:34;16.17;;;6.65;;
50225;SDS011;36113;50.742;6.432;2022-10-12T03:01:00;13.10;;;6.25;;
50225;SDS011;36113;50.742;6.432;2022-10-12T03:03:25;14.00;;;6.97;;
50225;SDS011;36113;50.742;6.432;2022-10-12T03:05:51;16.35;;;6.78;;
50225;SDS011;36113;50.742;6.432;2022-10-12T03:08:17;13.65;;;7.00;;
50225;SDS011;36113;50.742;6.432;2022-10-12T03:10:42;11.90;;;6.40;;
50225;SDS011;36113;50.742;6.432;2022-10-12T03:13:07;10.27;;;6.30;;
50225;SDS011;36113;50.742;6.432;2022-10-12T03:15:32;18.10;;;7.25;;
50225;SDS011;36113;50.742;6.432;2022-10-12T03:17:58;10.00;;;5.75;;
50225;SDS011;36113;50.742;6.432;2022-10-12T03:20:23;11.82;;;5.45;;
50225;SDS011;36113;50.742;6.432;2022-10-12T03:22:49;10.88;;;5.75;;
50225;SDS011;36113;50.742;6.432;2022-10-12T03:25:14;9.15;;;5.30;;
50225;SDS011;36113;50.742;6.432;2022-10-12T03:27:40;14.93;;;6.13;;
50225;SDS011;36113;50.742;6.432;2022-10-12T03:30:06;12.20;;;5.85;;
50225;SDS011;36113;50.742;6.432;2022-10-12T03:32:31;9.25;;;5.68;;
50225;SDS011;36113;50.742;6.432;2022-10-12T03:34:57;13.25;;;6.30;;
50225;SDS011;36113;50.742;6.432;2022-10-12T03:37:22;15.45;;;6.28;;
50225;SDS011;36113;50.742;6.432;2022-10-12T03:39:47;15.27;;;6.40;;
50225;SDS011;36113;50.742;6.432;2022-10-12T03:42:13;13.70;;;6.63;;
50225;SDS011;36113;50.742;6.432;2022-10-12T03:44:38;14.57;;;7.15;;
50225;SDS011;36113;50.742;6.432;2022-10-12T03:47:04;15.65;;;6.50;;
50225;SDS011;36113;50.742;6.432;2022-10-12T03:49:29;12.98;;;6.03;;
50225;SDS011;36113;50.742;6.432;2022-10-12T03:51:54;21.05;;;7.07;;
50225;SDS011;36113;50.742;6.432;2022-10-12T03:54:20;11.13;;;6.40;;
50225;SDS011;36113;50.742;6.432;2022-10-12T03:56:45;21.42;;;6.97;;
50225;SDS011;36113;50.742;6.432;2022-10-12T03:59:10;12.30;;;7.20;;
50225;SDS011;36113;50.742;6.432;2022-10-12T04:01:35;14.30;;;6.05;;
50225;SDS011;36113;50.742;6.432;2022-10-12T04:04:01;10.73;;;6.15;;
50225;SDS011;36113;50.742;6.432;2022-10-12T04:06:26;11.35;;;6.30;;
50225;SDS011;36113;50.742;6.432;2022-10-12T04:08:52;13.63;;;6.90;;
50225;SDS011;36113;50.742;6.432;2022-10-12T04:11:17;10.68;;;5.63;;
50225;SDS011;36113;50.742;6.432;2022-10-12T04:13:44;9.00;;;5.70;;
50225;SDS011;36113;50.742;6.432;2022-10-12T04:16:09;12.00;;;6.32;;
50225;SDS011;36113;50.742;6.432;2022-10-12T04:18:35;8.48;;;5.15;;
50225;SDS011;36113;50.742;6.432;2022-10-12T04:21:00;10.95;;;6.60;;
50225;SDS011;36113;50.742;6.432;2022-10-12T04:23:26;12.85;;;6.50;;
50225;SDS011;36113;50.742;6.432;2022-10-12T04:25:52;14.27;;;7.07;;
50225;SDS011;36113;50.742;6.432;2022-10-12T04:28:17;13.25;;;6.65;;
50225;SDS011;36113;50.742;6.432;2022-10-12T04:30:44;9.50;;;6.20;;
50225;SDS011;36113;50.742;6.432;2022-10-12T04:33:09;19.90;;;6.37;;
50225;SDS011;36113;50.742;6.432;2022-10-12T04:35:35;14.57;;;6.13;;
50225;SDS011;36113;50.742;6.432;2022-10-12T04:38:00;17.65;;;7.07;;
50225;SDS011;36113;50.742;6.432;2022-10-12T04:40:25;13.55;;;6.15;;
50225;SDS011;36113;50.742;6.432;2022-10-12T04:42:51;17.55;;;7.63;;
50225;SDS011;36113;50.742;6.432;2022-10-12T04:45:16;10.88;;;6.68;;
50225;SDS011;36113;50.742;6.432;2022-10-12T04:47:44;11.82;;;5.55;;
50225;SDS011;36113;50.742;6.432;2022-10-12T04:50:09;8.98;;;4.30;;
50225;SDS011;36113;50.742;6.432;2022-10-12T04:52:35;12.05;;;5.10;;
50225;SDS011;36113;50.742;6.432;2022-10-12T04:55:00;7.13;;;4.53;;
50225;SDS011;36113;50.742;6.432;2022-10-12T04:57:25;12.45;;;5.45;;
50225;SDS011;36113;50.742;6.432;2022-10-12T04:59:51;9.60;;;4.72;;
50225;SDS011;36113;50.742;6.432;2022-10-12T05:02:16;12.13;;;4.50;;
50225;SDS011;36113;50.742;6.432;2022-10-12T05:04:41;9.23;;;4.22;;
50225;SDS011;36113;50.742;6.432;2022-10-12T05:07:07;9.80;;;4.30;;
50225;SDS011;36113;50.742;6.432;2022-10-12T05:09:33;9.52;;;4.50;;
50225;SDS011;36113;50.742;6.432;2022-10-12T05:11:58;7.07;;;4.20;;
50225;SDS011;36113;50.742;6.432;2022-10-12T05:14:23;11.80;;;3.88;;
50225;SDS011;36113;50.742;6.432;2022-10-12T05:16:49;12.50;;;4.38;;
50225;SDS011;36113;50.742;6.432;2022-10-12T05:19:14;8.65;;;3.65;;
50225;SDS011;36113;50.742;6.432;2022-10-12T05:21:39;7.53;;;3.35;;
50225;SDS011;36113;50.742;6.432;2022-10-12T05:24:06;6.25;;;3.42;;
50225;SDS011;36113;50.742;6.432;2022-10-12T05:26:32;9.95;;;2.90;;
50225;SDS011;36113;50.742;6.432;2022-10-12T05:28:57;5.80;;;2.15;;
50225;SDS011;36113;50.742;6.432;2022-10-12T05:31:22;3.35;;;2.13;;
50225;SDS011;36113;50.742;6.432;2022-10-12T05:33:48;6.53;;;2.60;;
50225;SDS011;36113;50.742;6.432;2022-10-12T05:36:13;8.65;;;2.63;;
50225;SDS011;36113;50.742;6.432;2022-10-12T05:38:38;9.75;;;3.20;;
50225;SDS011;36113;50.742;6.432;2022-10-12T05:41:03;4.88;;;2.35;;
50225;SDS011;36113;50.742;6.432;2022-10-12T05:43:29;4.18;;;2.45;;
50225;SDS011;36113;50.742;6.432;2022-10-12T05:45:54;8.25;;;2.35;;
50225;SDS011;36113;50.742;6.432;2022-10-12T05:48:20;5.32;;;2.25;;
50225;SDS011;36113;50.742;6.432;2022-10-12T05:50:45;3.65;;;2.30;;
50225;SDS011;36113;50.742;6.432;2022-10-12T05:53:11;6.65;;;1.90;;
50225;SDS011;36113;50.742;6.432;2022-10-12T05:55:36;3.42;;;1.63;;
50225;SDS011;36113;50.742;6.432;2022-10-12T05:58:01;5.43;;;2.08;;
50225;SDS011;36113;50.742;6.432;2022-10-12T06:00:26;8.02;;;2.22;;
50225;SDS011;36113;50.742;6.432;2022-10-12T06:02:52;6.53;;;2.92;;
50225;SDS011;36113;50.742;6.432;2022-10-12T06:05:17;4.22;;;2.30;;
50225;SDS011;36113;50.742;6.432;2022-10-12T06:07:42;6.13;;;3.13;;
50225;SDS011;36113;50.742;6.432;2022-10-12T06:10:08;9.00;;;3.40;;
50225;SDS011;36113;50.742;6.432;2022-10-12T06:12:33;6.50;;;2.63;;
50225;SDS011;36113;50.742;6.432;2022-10-12T06:14:59;5.30;;;2.50;;
50225;SDS011;36113;50.742;6.432;2022-10-12T06:17:24;11.57;;;3.33;;
50225;SDS011;36113;50.742;6.432;2022-10-12T06:19:49;6.38;;;2.53;;
50225;SDS011;36113;50.742;6.432;2022-10-12T06:22:14;8.00;;;2.65;;
50225;SDS011;36113;50.742;6.432;2022-10-12T06:24:40;3.28;;;2.30;;
50225;SDS011;36113;50.742;6.432;2022-10-12T06:27:05;7.95;;;2.30;;
50225;SDS011;36113;50.742;6.432;2022-10-12T06:29:30;6.07;;;2.65;;
50225;SDS011;36113;50.742;6.432;2022-10-12T06:31:56;6.45;;;2.10;;
50225;SDS011;36113;50.742;6.432;2022-10-12T06:34:21;4.20;;;2.15;;
50225;SDS011;36113;50.742;6.432;2022-10-12T06:36:47;5.10;;;2.53;;
50225;SDS011;36113;50.742;6.432;2022-10-12T06:39:13;5.50;;;3.08;;
50225;SDS011;36113;50.742;6.432;2022-10-12T06:41:38;5.22;;;2.42;;
50225;SDS011;36113;50.742;6.432;2022-10-12T06:44:04;4.97;;;2.83;;
50225;SDS011;36113;50.742;6.432;2022-10-12T06:46:29;8.73;;;3.50;;
50225;SDS011;36113;50.742;6.432;2022-10-12T06:48:54;11.27;;;4.00;;
50225;SDS011;36113;50.742;6.432;2022-10-12T06:51:20;7.10;;;3.20;;
50225;SDS011;36113;50.742;6.432;2022-10-12T06:53:45;4.60;;;3.13;;
50225;SDS011;36113;50.742;6.432;2022-10-12T06:56:11;7.28;;;3.10;;
50225;SDS011;36113;50.742;6.432;2022-10-12T06:58:36;12.13;;;3.15;;
50225;SDS011;36113;50.742;6.432;2022-10-12T07:01:03;8.33;;;3.47;;
50225;SDS011;36113;50.742;6.432;2022-10-12T07:06:03;9.57;;;3.38;;
50225;SDS011;36113;50.742;6.432;2022-10-12T07:10:59;7.18;;;3.15;;
50225;SDS011;36113;50.742;6.432;2022-10-12T07:13:27;51.80;;;15.40;;
50225;SDS011;36113;50.742;6.432;2022-10-12T07:15:52;19.20;;;6.68;;
50225;SDS011;36113;50.742;6.432;2022-10-12T07:18:18;8.50;;;4.45;;
50225;SDS011;36113;50.742;6.432;2022-10-12T07:20:43;5.85;;;3.75;;
50225;SDS011;36113;50.742;6.432;2022-10-12T07:23:08;11.45;;;5.50;;
50225;SDS011;36113;50.742;6.432;2022-10-12T07:25:34;15.55;;;5.70;;
50225;SDS011;36113;50.742;6.432;2022-10-12T07:27:59;11.50;;;4.40;;
50225;SDS011;36113;50.742;6.432;2022-10-12T07:30:24;10.23;;;3.80;;
50225;SDS011;36113;50.742;6.432;2022-10-12T07:32:50;7.72;;;2.95;;
50225;SDS011;36113;50.742;6.432;2022-10-12T07:35:18;13.32;;;4.30;;
50225;SDS011;36113;50.742;6.432;2022-10-12T07:37:43;49.45;;;19.73;;
50225;SDS011;36113;50.742;6.432;2022-10-12T07:40:09;31.25;;;13.35;;
50225;SDS011;36113;50.742;6.432;2022-10-12T07:42:34;51.08;;;27.17;;
50225;SDS011;36113;50.742;6.432;2022-10-12T07:44:59;17.50;;;10.20;;
50225;SDS011;36113;50.742;6.432;2022-10-12T07:47:25;55.45;;;24.27;;
50225;SDS011;36113;50.742;6.432;2022-10-12T07:49:50;18.13;;;9.23;;
50225;SDS011;36113;50.742;6.432;2022-10-12T07:52:15;11.27;;;3.55;;
50225;SDS011;36113;50.742;6.432;2022-10-12T07:54:41;6.57;;;4.72;;
50225;SDS011;36113;50.742;6.432;2022-10-12T07:57:06;10.85;;;3.90;;
50225;SDS011;36113;50.742;6.432;2022-10-12T07:59:32;14.90;;;10.90;;
50225;SDS011;36113;50.742;6.432;2022-10-12T08:01:57;15.48;;;11.70;;
50225;SDS011;36113;50.742;6.432;2022-10-12T08:04:23;14.85;;;10.20;;
50225;SDS011;36113;50.742;6.432;2022-10-12T08:06:48;10.48;;;6.57;;
50225;SDS011;36113;50.742;6.432;2022-10-12T08:09:13;7.03;;;3.85;;
50225;SDS011;36113;50.742;6.432;2022-10-12T08:11:39;6.75;;;3.03;;
50225;SDS011;36113;50.742;6.432;2022-10-12T08:14:05;7.27;;;3.40;;
50225;SDS011;36113;50.742;6.432;2022-10-12T08:16:36;8.05;;;3.08;;
50225;SDS011;36113;50.742;6.432;2022-10-12T08:19:01;5.57;;;2.60;;
50225;SDS011;36113;50.742;6.432;2022-10-12T08:21:26;8.52;;;3.30;;
50225;SDS011;36113;50.742;6.432;2022-10-12T08:23:52;3.67;;;2.50;;
50225;SDS011;36113;50.742;6.432;2022-10-12T08:26:17;5.25;;;2.67;;
50225;SDS011;36113;50.742;6.432;2022-10-12T08:28:42;8.75;;;2.65;;
50225;SDS011;36113;50.742;6.432;2022-10-12T08:31:09;2.75;;;2.55;;
50225;SDS011;36113;50.742;6.432;2022-10-12T08:33:37;6.45;;;2.72;;
50225;SDS011;36113;50.742;6.432;2022-10-12T08:36:03;6.30;;;2.28;;
50225;SDS011;36113;50.742;6.432;2022-10-12T08:38:29;6.18;;;2.40;;
50225;SDS011;36113;50.742;6.432;2022-10-12T08:40:58;7.07;;;2.60;;
50225;SDS011;36113;50.742;6.432;2022-10-12T08:43:47;6.72;;;2.92;;
50225;SDS011;36113;50.742;6.432;2022-10-12T08:46:18;5.97;;;2.13;;
50225;SDS011;36113;50.742;6.432;2022-10-12T08:48:49;5.78;;;1.98;;
50225;SDS011;36113;50.742;6.432;2022-10-12T08:51:21;7.22;;;2.90;;
50225;SDS011;36113;50.742;6.432;2022-10-12T08:53:54;6.78;;;2.03;;
50225;SDS011;36113;50.742;6.432;2022-10-12T08:56:21;4.40;;;2.53;;
50225;SDS011;36113;50.742;6.432;2022-10-12T08:58:47;4.20;;;2.20;;
50225;SDS011;36113;50.742;6.432;2022-10-12T09:01:18;7.60;;;2.53;;
50225;SDS011;36113;50.742;6.432;2022-10-12T09:04:07;5.38;;;2.67;;
50225;SDS011;36113;50.742;6.432;2022-10-12T09:12:27;3.55;;;2.22;;
50225;SDS011;36113;50.742;6.432;2022-10-12T09:15:17;2.17;;;1.98;;
50225;SDS011;36113;50.742;6.432;2022-10-12T09:17:52;4.85;;;2.13;;
50225;SDS011;36113;50.742;6.432;2022-10-12T09:20:20;7.18;;;2.40;;
50225;SDS011;36113;50.742;6.432;2022-10-12T09:23:24;4.95;;;2.88;;
50225;SDS011;36113;50.742;6.432;2022-10-12T09:25:53;5.32;;;1.80;;
50225;SDS011;36113;50.742;6.432;2022-10-12T09:28:30;4.65;;;2.35;;
50225;SDS011;36113;50.742;6.432;2022-10-12T09:32:05;4.88;;;1.85;;
50225;SDS011;36113;50.742;6.432;2022-10-12T09:34:08;4.05;;;2.20;;
50225;SDS011;36113;50.742;6.432;2022-10-12T09:36:35;4.43;;;1.98;;
50225;SDS011;36113;50.742;6.432;2022-10-12T09:39:04;5.93;;;2.22;;
50225;SDS011;36113;50.742;6.432;2022-10-12T09:41:36;4.07;;;2.45;;
50225;SDS011;36113;50.742;6.432;2022-10-12T09:44:05;4.13;;;2.17;;
50225;SDS011;36113;50.742;6.432;2022-10-12T09:46:38;2.47;;;2.13;;
50225;SDS011;36113;50.742;6.432;2022-10-12T09:49:07;7.18;;;2.80;;
50225;SDS011;36113;50.742;6.432;2022-10-12T09:51:33;6.18;;;2.58;;
50225;SDS011;36113;50.742;6.432;2022-10-12T09:53:59;7.70;;;2.70;;
50225;SDS011;36113;50.742;6.432;2022-10-12T09:59:06;5.97;;;2.75;;
50225;SDS011;36113;50.742;6.432;2022-10-12T10:01:55;6.53;;;3.17;;
50225;SDS011;36113;50.742;6.432;2022-10-12T10:04:28;6.95;;;3.58;;
50225;SDS011;36113;50.742;6.432;2022-10-12T10:06:54;8.77;;;3.55;;
50225;SDS011;36113;50.742;6.432;2022-10-12T10:09:35;11.10;;;4.43;;
50225;SDS011;36113;50.742;6.432;2022-10-12T10:14:56;9.70;;;3.90;;
50225;SDS011;36113;50.742;6.432;2022-10-12T10:17:26;5.72;;;3.47;;
50225;SDS011;36113;50.742;6.432;2022-10-12T10:19:57;8.27;;;3.67;;
50225;SDS011;36113;50.742;6.432;2022-10-12T10:22:26;12.48;;;3.78;;
50225;SDS011;36113;50.742;6.432;2022-10-12T10:24:54;6.20;;;4.15;;
50225;SDS011;36113;50.742;6.432;2022-10-12T10:27:33;7.30;;;4.22;;
50225;SDS011;36113;50.742;6.432;2022-10-12T10:32:43;10.07;;;5.05;;
50225;SDS011;36113;50.742;6.432;2022-10-12T10:37:35;9.00;;;5.95;;
50225;SDS011;36113;50.742;6.432;2022-10-12T10:40:01;10.95;;;5.80;;
50225;SDS011;36113;50.742;6.432;2022-10-12T10:42:28;11.15;;;5.00;;
50225;SDS011;36113;50.742;6.432;2022-10-12T10:45:05;7.93;;;5.80;;
50225;SDS011;36113;50.742;6.432;2022-10-12T10:47:32;7.53;;;6.03;;
50225;SDS011;36113;50.742;6.432;2022-10-12T10:50:05;8.75;;;6.10;;
50225;SDS011;36113;50.742;6.432;2022-10-12T10:52:51;11.63;;;5.60;;
50225;SDS011;36113;50.742;6.432;2022-10-12T10:55:20;9.35;;;4.97;;
50225;SDS011;36113;50.742;6.432;2022-10-12T10:57:53;10.93;;;5.07;;
50225;SDS011;36113;50.742;6.432;2022-10-12T11:00:24;8.70;;;5.05;;
50225;SDS011;36113;50.742;6.432;2022-10-12T11:02:53;9.60;;;4.55;;
50225;SDS011;36113;50.742;6.432;2022-10-12T11:05:21;7.15;;;4.78;;
50225;SDS011;36113;50.742;6.432;2022-10-12T11:07:54;10.43;;;5.07;;
50225;SDS011;36113;50.742;6.432;2022-10-12T11:10:24;10.25;;;4.55;;
50225;SDS011;36113;50.742;6.432;2022-10-12T11:12:55;7.40;;;5.25;;
50225;SDS011;36113;50.742;6.432;2022-10-12T11:15:30;13.10;;;4.78;;
50225;SDS011;36113;50.742;6.432;2022-10-12T11:18:10;10.17;;;5.60;;
50225;SDS011;36113;50.742;6.432;2022-10-12T11:23:19;5.53;;;3.90;;
50225;SDS011;36113;50.742;6.432;2022-10-12T11:26:12;8.75;;;4.82;;
50225;SDS011;36113;50.742;6.432;2022-10-12T11:28:44;7.80;;;4.65;;
50225;SDS011;36113;50.742;6.432;2022-10-12T11:31:15;8.43;;;4.45;;
50225;SDS011;36113;50.742;6.432;2022-10-12T11:33:43;9.52;;;4.10;;
50225;SDS011;36113;50.742;6.432;2022-10-12T11:36:12;10.77;;;5.20;;
50225;SDS011;36113;50.742;6.432;2022-10-12T11:38:41;6.07;;;4.57;;
50225;SDS011;36113;50.742;6.432;2022-10-12T11:41:15;6.10;;;4.13;;
50225;SDS011;36113;50.742;6.432;2022-10-12T11:43:44;8.88;;;4.05;;
50225;SDS011;36113;50.742;6.432;2022-10-12T11:46:16;6.15;;;4.20;;
50225;SDS011;36113;50.742;6.432;2022-10-12T11:48:50;4.40;;;4.00;;
50225;SDS011;36113;50.742;6.432;2022-10-12T11:51:20;7.88;;;4.20;;
50225;SDS011;36113;50.742;6.432;2022-10-12T11:56:35;6.15;;;4.38;;
50225;SDS011;36113;50.742;6.432;2022-10-12T11:59:08;5.78;;;4.25;;
50225;SDS011;36113;50.742;6.432;2022-10-12T12:04:14;8.40;;;4.75;;
50225;SDS011;36113;50.742;6.432;2022-10-12T12:06:51;7.10;;;4.80;;
50225;SDS011;36113;50.742;6.432;2022-10-12T12:17:24;6.22;;;4.55;;
50225;SDS011;36113;50.742;6.432;2022-10-12T12:19:51;11.07;;;4.40;;
50225;SDS011;36113;50.742;6.432;2022-10-12T12:25:24;7.13;;;4.15;;
50225;SDS011;36113;50.742;6.432;2022-10-12T12:35:24;6.40;;;3.95;;
50225;SDS011;36113;50.742;6.432;2022-10-12T12:40:53;8.13;;;3.60;;
50225;SDS011;36113;50.742;6.432;2022-10-12T12:51:06;6.43;;;3.22;;
50225;SDS011;36113;50.742;6.432;2022-10-12T12:53:35;4.75;;;3.92;;
50225;SDS011;36113;50.742;6.432;2022-10-12T12:56:03;6.28;;;3.63;;
50225;SDS011;36113;50.742;6.432;2022-10-12T13:01:12;4.80;;;4.00;;
50225;SDS011;36113;50.742;6.432;2022-10-12T13:04:03;6.35;;;4.13;;
50225;SDS011;36113;50.742;6.432;2022-10-12T13:12:32;6.10;;;3.30;;
50225;SDS011;36113;50.742;6.432;2022-10-12T13:18:09;4.78;;;4.18;;
50225;SDS011;36113;50.742;6.432;2022-10-12T13:20:39;5.30;;;3.90;;
50225;SDS011;36113;50.742;6.432;2022-10-12T13:23:08;7.10;;;3.30;;
50225;SDS011;36113;50.742;6.432;2022-10-12T13:25:44;5.03;;;3.55;;
50225;SDS011;36113;50.742;6.432;2022-10-12T13:28:25;6.50;;;3.58;;
50225;SDS011;36113;50.742;6.432;2022-10-12T13:31:03;4.70;;;3.60;;
50225;SDS011;36113;50.742;6.432;2022-10-12T13:33:35;4.85;;;3.40;;
50225;SDS011;36113;50.742;6.432;2022-10-12T13:36:19;4.97;;;4.03;;
50225;SDS011;36113;50.742;6.432;2022-10-12T13:38:52;10.48;;;3.83;;
50225;SDS011;36113;50.742;6.432;2022-10-12T13:41:20;12.05;;;3.80;;
50225;SDS011;36113;50.742;6.432;2022-10-12T13:48:57;4.18;;;3.65;;
50225;SDS011;36113;50.742;6.432;2022-10-12T13:51:23;5.60;;;4.50;;
50225;SDS011;36113;50.742;6.432;2022-10-12T13:53:53;5.70;;;3.47;;
50225;SDS011;36113;50.742;6.432;2022-10-12T13:56:20;3.53;;;2.80;;
50225;SDS011;36113;50.742;6.432;2022-10-12T13:58:52;4.40;;;3.40;;
50225;SDS011;36113;50.742;6.432;2022-10-12T14:01:22;5.28;;;3.47;;
50225;SDS011;36113;50.742;6.432;2022-10-12T14:03:48;6.07;;;3.63;;
50225;SDS011;36113;50.742;6.432;2022-10-12T14:06:28;6.60;;;4.27;;
50225;SDS011;36113;50.742;6.432;2022-10-12T14:08:55;6.15;;;3.67;;
50225;SDS011;36113;50.742;6.432;2022-10-12T14:11:23;4.88;;;3.22;;
50225;SDS011;36113;50.742;6.432;2022-10-12T14:13:50;10.80;;;3.45;;
50225;SDS011;36113;50.742;6.432;2022-10-12T14:16:17;4.15;;;3.55;;
50225;SDS011;36113;50.742;6.432;2022-10-12T14:18:43;3.73;;;3.33;;
50225;SDS011;36113;50.742;6.432;2022-10-12T14:21:11;5.75;;;3.40;;
50225;SDS011;36113;50.742;6.432;2022-10-12T14:23:40;3.72;;;3.10;;
50225;SDS011;36113;50.742;6.432;2022-10-12T14:28:58;3.58;;;3.08;;
50225;SDS011;36113;50.742;6.432;2022-10-12T14:34:28;4.85;;;3.13;;
50225;SDS011;36113;50.742;6.432;2022-10-12T14:37:20;5.03;;;3.47;;
50225;SDS011;36113;50.742;6.432;2022-10-12T14:39:50;4.50;;;3.47;;
50225;SDS011;36113;50.742;6.432;2022-10-12T14:44:59;4.82;;;3.08;;
50225;SDS011;36113;50.742;6.432;2022-10-12T14:47:33;5.13;;;3.53;;
50225;SDS011;36113;50.742;6.432;2022-10-12T14:50:03;6.22;;;3.47;;
50225;SDS011;36113;50.742;6.432;2022-10-12T14:52:35;4.95;;;3.03;;
50225;SDS011;36113;50.742;6.432;2022-10-12T14:55:15;6.15;;;3.55;;
50225;SDS011;36113;50.742;6.432;2022-10-12T14:57:41;6.50;;;4.10;;
50225;SDS011;36113;50.742;6.432;2022-10-12T15:00:06;8.57;;;5.37;;
50225;SDS011;36113;50.742;6.432;2022-10-12T15:02:33;14.68;;;6.15;;
50225;SDS011;36113;50.742;6.432;2022-10-12T15:05:00;10.55;;;4.78;;
50225;SDS011;36113;50.742;6.432;2022-10-12T15:07:28;17.93;;;10.50;;
50225;SDS011;36113;50.742;6.432;2022-10-12T15:09:55;16.25;;;9.30;;
50225;SDS011;36113;50.742;6.432;2022-10-12T15:12:21;12.73;;;7.43;;
50225;SDS011;36113;50.742;6.432;2022-10-12T15:14:48;11.10;;;6.30;;
50225;SDS011;36113;50.742;6.432;2022-10-12T15:17:16;7.75;;;5.15;;
50225;SDS011;36113;50.742;6.432;2022-10-12T15:19:43;7.85;;;4.63;;
50225;SDS011;36113;50.742;6.432;2022-10-12T15:24:38;4.80;;;4.25;;
50225;SDS011;36113;50.742;6.432;2022-10-12T15:27:04;12.13;;;6.57;;
50225;SDS011;36113;50.742;6.432;2022-10-12T15:29:29;23.17;;;9.60;;
50225;SDS011;36113;50.742;6.432;2022-10-12T15:31:54;12.67;;;6.57;;
50225;SDS011;36113;50.742;6.432;2022-10-12T15:34:20;19.83;;;8.20;;
50225;SDS011;36113;50.742;6.432;2022-10-12T15:36:45;16.90;;;6.97;;
50225;SDS011;36113;50.742;6.432;2022-10-12T15:39:10;14.97;;;5.50;;
50225;SDS011;36113;50.742;6.432;2022-10-12T15:41:36;10.35;;;4.88;;
50225;SDS011;36113;50.742;6.432;2022-10-12T15:44:01;16.02;;;8.10;;
50225;SDS011;36113;50.742;6.432;2022-10-12T15:46:26;11.57;;;6.33;;
50225;SDS011;36113;50.742;6.432;2022-10-12T15:48:52;5.83;;;4.73;;
50225;SDS011;36113;50.742;6.432;2022-10-12T15:51:19;7.43;;;4.37;;
50225;SDS011;36113;50.742;6.432;2022-10-12T15:53:47;7.85;;;4.20;;
50225;SDS011;36113;50.742;6.432;2022-10-12T15:58:39;7.85;;;4.40;;
50225;SDS011;36113;50.742;6.432;2022-10-12T16:01:05;5.25;;;4.47;;
50225;SDS011;36113;50.742;6.432;2022-10-12T16:03:31;6.83;;;5.33;;
50225;SDS011;36113;50.742;6.432;2022-10-12T16:05:57;8.02;;;6.43;;
50225;SDS011;36113;50.742;6.432;2022-10-12T16:08:23;10.10;;;6.28;;
50225;SDS011;36113;50.742;6.432;2022-10-12T16:10:49;13.30;;;6.38;;
50225;SDS011;36113;50.742;6.432;2022-10-12T16:13:15;10.63;;;6.13;;
50225;SDS011;36113;50.742;6.432;2022-10-12T16:15:41;9.18;;;6.60;;
50225;SDS011;36113;50.742;6.432;2022-10-12T16:18:07;7.77;;;4.63;;
50225;SDS011;36113;50.742;6.432;2022-10-12T16:20:34;4.90;;;4.40;;
50225;SDS011;36113;50.742;6.432;2022-10-12T16:23:06;7.38;;;4.15;;
50225;SDS011;36113;50.742;6.432;2022-10-12T16:25:37;11.23;;;4.57;;
50225;SDS011;36113;50.742;6.432;2022-10-12T16:28:03;9.35;;;4.05;;
50225;SDS011;36113;50.742;6.432;2022-10-12T16:30:28;6.85;;;4.43;;
50225;SDS011;36113;50.742;6.432;2022-10-12T16:32:54;5.43;;;4.90;;
50225;SDS011;36113;50.742;6.432;2022-10-12T16:35:19;7.13;;;4.20;;
50225;SDS011;36113;50.742;6.432;2022-10-12T16:37:45;5.07;;;4.20;;
50225;SDS011;36113;50.742;6.432;2022-10-12T16:40:11;6.15;;;4.20;;